Wetterdaten: Woche 01.09.14 - 07.09.14 (KW36)
Datum Zeit Temperatur Luftfeuchte Luftdruck Niederschlag Windrichtung Sonnenschein Solar Wind
01.09.2014 00:00 11,0 C 98 % 1014,6 hPa 0,0 l/m W-SW 0,00 h 0 W/m 7,0 km/h (2 Bft)
01.09.2014 01:00 11,1 C 98 % 1014,8 hPa 0,0 l/m W 0,00 h 0 W/m 5,2 km/h (1 Bft)
01.09.2014 02:00 10,9 C 98 % 1015,0 hPa 0,8 l/m W 0,00 h 0 W/m 8,2 km/h (2 Bft)
01.09.2014 03:00 10,8 C 98 % 1015,2 hPa 0,0 l/m W-NW 0,00 h 0 W/m 5,9 km/h (2 Bft)
01.09.2014 04:00 10,4 C 98 % 1015,3 hPa 0,0 l/m NW 0,00 h 0 W/m 8,7 km/h (2 Bft)
01.09.2014 05:00 10,2 C 98 % 1015,8 hPa 0,0 l/m NW 0,00 h 0 W/m 4,4 km/h (1 Bft)
01.09.2014 06:00 10,0 C 98 % 1016,3 hPa 0,0 l/m NW 0,00 h 0 W/m 5,5 km/h (1 Bft)
01.09.2014 07:00 10,3 C 98 % 1016,9 hPa 0,0 l/m N-NW 0,00 h 18 W/m 6,4 km/h (2 Bft)
01.09.2014 08:00 10,9 C 97 % 1017,4 hPa 0,0 l/m N-NW 0,42 h 128 W/m 8,7 km/h (2 Bft)
01.09.2014 09:00 11,3 C 93 % 1018,0 hPa 0,0 l/m NW 0,00 h 105 W/m 9,5 km/h (2 Bft)
01.09.2014 10:00 12,5 C 88 % 1018,2 hPa 0,0 l/m NW 0,25 h 240 W/m 10,9 km/h (2 Bft)
01.09.2014 11:00 13,4 C 81 % 1018,4 hPa 0,0 l/m N 0,08 h 238 W/m 13,6 km/h (3 Bft)
01.09.2014 12:00 13,3 C 82 % 1018,7 hPa 0,0 l/m N 0,00 h 157 W/m 12,8 km/h (3 Bft)
01.09.2014 13:00 13,7 C 81 % 1018,8 hPa 0,0 l/m N-NO 0,00 h 266 W/m 14,8 km/h (3 Bft)
01.09.2014 14:00 14,2 C 78 % 1019,0 hPa 0,0 l/m N 0,00 h 285 W/m 13,3 km/h (3 Bft)
01.09.2014 15:00 15,0 C 73 % 1019,1 hPa 0,0 l/m N-NO 0,42 h 343 W/m 12,1 km/h (2 Bft)
01.09.2014 16:00 15,0 C 73 % 1019,1 hPa 0,0 l/m N 0,25 h 288 W/m 10,5 km/h (2 Bft)
01.09.2014 17:00 15,0 C 73 % 1019,0 hPa 0,0 l/m N 0,33 h 269 W/m 8,7 km/h (2 Bft)
01.09.2014 18:00 14,4 C 75 % 1019,0 hPa 0,0 l/m N 0,08 h 95 W/m 5,1 km/h (1 Bft)
01.09.2014 19:00 13,8 C 81 % 1019,2 hPa 0,0 l/m N 0,00 h 18 W/m 3,1 km/h (1 Bft)
01.09.2014 20:00 12,6 C 88 % 1019,6 hPa 0,0 l/m N 0,00 h 0 W/m 0,0 km/h (0 Bft)
01.09.2014 21:00 11,8 C 93 % 1020,0 hPa 0,0 l/m N 0,00 h 0 W/m 0,0 km/h (0 Bft)
01.09.2014 22:00 11,8 C 93 % 1019,8 hPa 0,0 l/m N 0,00 h 0 W/m 0,0 km/h (0 Bft)
01.09.2014 23:00 11,6 C 94 % 1019,7 hPa 0,0 l/m N 0,00 h 0 W/m 0,0 km/h (0 Bft)
02.09.2014 00:00 11,4 C 95 % 1019,5 hPa 0,0 l/m N 0,00 h 0 W/m 0,0 km/h (0 Bft)
02.09.2014 01:00 11,1 C 96 % 1019,3 hPa 0,0 l/m N 0,00 h 0 W/m 0,0 km/h (0 Bft)
02.09.2014 02:00 10,9 C 97 % 1018,9 hPa 0,0 l/m N 0,00 h 0 W/m 0,0 km/h (0 Bft)
02.09.2014 03:00 10,6 C 97 % 1018,7 hPa 0,0 l/m N 0,00 h 0 W/m 0,0 km/h (0 Bft)
02.09.2014 04:00 10,4 C 97 % 1018,8 hPa 0,0 l/m N 0,00 h 0 W/m 0,0 km/h (0 Bft)
02.09.2014 05:00 10,6 C 97 % 1018,7 hPa 0,0 l/m N 0,00 h 0 W/m 2,7 km/h (1 Bft)
02.09.2014 06:00 10,7 C 97 % 1018,9 hPa 0,0 l/m N 0,00 h 5 W/m 3,6 km/h (1 Bft)
02.09.2014 07:00 10,8 C 97 % 1019,0 hPa 0,0 l/m N 0,00 h 20 W/m 1,9 km/h (1 Bft)
02.09.2014 08:00 11,4 C 96 % 1019,0 hPa 0,0 l/m N 0,00 h 57 W/m 1,1 km/h (0 Bft)
02.09.2014 09:00 12,5 C 92 % 1019,1 hPa 0,0 l/m NO 0,00 h 176 W/m 1,7 km/h (1 Bft)
02.09.2014 10:00 14,1 C 83 % 1019,0 hPa 0,0 l/m NO 0,00 h 275 W/m 6,4 km/h (2 Bft)
02.09.2014 11:00 15,4 C 77 % 1018,8 hPa 0,0 l/m NO 0,58 h 493 W/m 8,8 km/h (2 Bft)
02.09.2014 12:00 16,4 C 70 % 1018,5 hPa 0,0 l/m N-NO 0,50 h 428 W/m 9,5 km/h (2 Bft)
02.09.2014 13:00 16,6 C 68 % 1018,5 hPa 0,0 l/m N-NO 0,17 h 253 W/m 9,4 km/h (2 Bft)
02.09.2014 14:00 16,6 C 68 % 1018,5 hPa 0,0 l/m N-NO 0,00 h 237 W/m 11,2 km/h (2 Bft)
02.09.2014 15:00 16,4 C 71 % 1018,4 hPa 0,0 l/m N-NO 0,08 h 201 W/m 10,2 km/h (2 Bft)
02.09.2014 16:00 16,0 C 78 % 1018,1 hPa 0,0 l/m N 0,00 h 195 W/m 10,5 km/h (2 Bft)
02.09.2014 17:00 15,5 C 78 % 1018,1 hPa 0,0 l/m N-NO 0,00 h 105 W/m 12,0 km/h (2 Bft)
02.09.2014 18:00 15,3 C 79 % 1018,2 hPa 0,0 l/m NO 0,00 h 65 W/m 7,3 km/h (2 Bft)
02.09.2014 19:00 14,9 C 83 % 1018,5 hPa 0,0 l/m NO 0,00 h 11 W/m 6,3 km/h (2 Bft)
02.09.2014 20:00 13,8 C 90 % 1018,7 hPa 0,0 l/m NO 0,00 h 0 W/m 5,1 km/h (1 Bft)
02.09.2014 21:00 13,3 C 93 % 1019,2 hPa 0,0 l/m NO 0,00 h 0 W/m 2,4 km/h (1 Bft)
02.09.2014 22:00 13,0 C 95 % 1019,4 hPa 0,0 l/m NO 0,00 h 0 W/m 3,2 km/h (1 Bft)
02.09.2014 23:00 12,0 C 96 % 1019,2 hPa 0,0 l/m NO 0,00 h 0 W/m 3,1 km/h (1 Bft)
03.09.2014 00:00 12,0 C 97 % 1018,8 hPa 0,0 l/m NO 0,00 h 0 W/m 2,5 km/h (1 Bft)
03.09.2014 01:00 11,9 C 97 % 1018,5 hPa 0,0 l/m N 0,00 h 0 W/m 2,3 km/h (1 Bft)
03.09.2014 02:00 12,2 C 97 % 1018,1 hPa 0,0 l/m NO 0,00 h 0 W/m 3,3 km/h (1 Bft)
03.09.2014 03:00 12,5 C 97 % 1017,6 hPa 0,0 l/m NO 0,00 h 0 W/m 6,4 km/h (2 Bft)
03.09.2014 04:00 12,7 C 97 % 1017,2 hPa 0,0 l/m NO 0,00 h 0 W/m 8,8 km/h (2 Bft)
03.09.2014 05:00 12,8 C 96 % 1016,8 hPa 0,0 l/m NO 0,00 h 0 W/m 10,3 km/h (2 Bft)
03.09.2014 06:00 12,8 C 96 % 1016,7 hPa 0,0 l/m NO 0,00 h 0 W/m 10,1 km/h (2 Bft)
03.09.2014 07:00 12,8 C 96 % 1016,7 hPa 0,0 l/m NO 0,00 h 12 W/m 8,8 km/h (2 Bft)
03.09.2014 08:00 13,1 C 96 % 1016,6 hPa 0,0 l/m NO 0,00 h 42 W/m 14,0 km/h (3 Bft)
03.09.2014 09:00 13,3 C 94 % 1016,5 hPa 0,0 l/m NO 0,00 h 62 W/m 15,6 km/h (3 Bft)
03.09.2014 10:00 13,6 C 91 % 1016,7 hPa 0,0 l/m O-NO 0,00 h 110 W/m 19,6 km/h (3 Bft)
03.09.2014 11:00 13,9 C 90 % 1016,8 hPa 0,0 l/m O-NO 0,00 h 83 W/m 18,5 km/h (3 Bft)
03.09.2014 12:00 14,0 C 91 % 1016,5 hPa 0,0 l/m O-NO 0,00 h 111 W/m 17,2 km/h (3 Bft)
03.09.2014 13:00 14,7 C 89 % 1016,3 hPa 0,0 l/m O-NO 0,00 h 135 W/m 19,8 km/h (4 Bft)
03.09.2014 14:00 15,0 C 88 % 1016,0 hPa 0,0 l/m O-NO 0,00 h 114 W/m 20,9 km/h (4 Bft)
03.09.2014 15:00 15,8 C 85 % 1015,6 hPa 0,0 l/m O 0,00 h 195 W/m 25,7 km/h (4 Bft)
03.09.2014 16:00 16,0 C 84 % 1015,3 hPa 0,0 l/m O-NO 0,00 h 106 W/m 20,9 km/h (4 Bft)
03.09.2014 17:00 16,0 C 86 % 1015,1 hPa 0,0 l/m O-NO 0,00 h 58 W/m 17,0 km/h (3 Bft)
03.09.2014 18:00 15,9 C 87 % 1015,0 hPa 0,0 l/m O-NO 0,00 h 29 W/m 17,6 km/h (3 Bft)
03.09.2014 19:00 15,5 C 87 % 1015,2 hPa 0,0 l/m O-NO 0,00 h 11 W/m 16,4 km/h (3 Bft)
03.09.2014 20:00 15,3 C 87 % 1015,5 hPa 0,0 l/m O-NO 0,00 h 0 W/m 16,9 km/h (3 Bft)
03.09.2014 21:00 15,0 C 89 % 1015,8 hPa 0,0 l/m O-NO 0,00 h 0 W/m 14,2 km/h (3 Bft)
03.09.2014 22:00 15,0 C 90 % 1015,8 hPa 0,0 l/m O 0,00 h 0 W/m 12,8 km/h (3 Bft)
03.09.2014 23:00 14,8 C 90 % 1015,6 hPa 0,0 l/m O-NO 0,00 h 0 W/m 13,0 km/h (3 Bft)
04.09.2014 00:00 14,5 C 90 % 1015,6 hPa 0,0 l/m O-NO 0,00 h 0 W/m 13,6 km/h (3 Bft)
04.09.2014 01:00 14,3 C 90 % 1015,4 hPa 0,0 l/m O-NO 0,00 h 0 W/m 14,8 km/h (3 Bft)
04.09.2014 02:00 13,8 C 92 % 1015,1 hPa 0,0 l/m O 0,00 h 0 W/m 13,7 km/h (3 Bft)
04.09.2014 03:00 13,7 C 93 % 1015,0 hPa 0,0 l/m O 0,00 h 0 W/m 13,8 km/h (3 Bft)
04.09.2014 04:00 13,7 C 92 % 1014,8 hPa 0,0 l/m O-NO 0,00 h 0 W/m 12,0 km/h (2 Bft)
04.09.2014 05:00 13,5 C 93 % 1014,6 hPa 0,0 l/m O 0,00 h 0 W/m 8,8 km/h (2 Bft)
04.09.2014 06:00 13,5 C 93 % 1014,5 hPa 0,0 l/m O 0,00 h 0 W/m 6,4 km/h (2 Bft)
04.09.2014 07:00 13,5 C 94 % 1014,7 hPa 0,0 l/m O-NO 0,00 h 11 W/m 8,0 km/h (2 Bft)
04.09.2014 08:00 13,6 C 94 % 1014,8 hPa 0,0 l/m NO 0,00 h 21 W/m 8,4 km/h (2 Bft)
04.09.2014 09:00 13,4 C 96 % 1014,9 hPa 0,0 l/m O-NO 0,00 h 39 W/m 6,9 km/h (2 Bft)
04.09.2014 10:00 13,7 C 97 % 1015,0 hPa 0,0 l/m O-NO 0,00 h 83 W/m 7,3 km/h (2 Bft)
04.09.2014 11:00 14,9 C 92 % 1015,0 hPa 0,0 l/m O-NO 0,00 h 185 W/m 9,1 km/h (2 Bft)
04.09.2014 12:00 16,0 C 86 % 1015,0 hPa 0,0 l/m O-NO 0,00 h 218 W/m 11,2 km/h (2 Bft)
04.09.2014 13:00 16,7 C 84 % 1014,8 hPa 0,0 l/m NO 0,00 h 285 W/m 12,6 km/h (3 Bft)
04.09.2014 14:00 17,3 C 82 % 1014,6 hPa 0,0 l/m NO 0,08 h 294 W/m 12,1 km/h (2 Bft)
04.09.2014 15:00 17,5 C 80 % 1014,5 hPa 0,0 l/m NO 0,08 h 212 W/m 10,1 km/h (2 Bft)
04.09.2014 16:00 18,1 C 78 % 1014,3 hPa 0,0 l/m NO 0,17 h 246 W/m 9,8 km/h (2 Bft)
04.09.2014 17:00 18,5 C 77 % 1014,0 hPa 0,0 l/m O 0,33 h 194 W/m 9,9 km/h (2 Bft)
04.09.2014 18:00 17,9 C 81 % 1014,0 hPa 0,0 l/m O 0,00 h 76 W/m 7,5 km/h (2 Bft)
04.09.2014 19:00 16,6 C 89 % 1014,1 hPa 0,0 l/m N 0,08 h 21 W/m 1,6 km/h (1 Bft)
04.09.2014 20:00 15,1 C 94 % 1014,4 hPa 0,0 l/m N 0,00 h 0 W/m 1,1 km/h (0 Bft)
04.09.2014 21:00 14,0 C 96 % 1014,4 hPa 0,0 l/m N 0,00 h 0 W/m 1,9 km/h (1 Bft)
04.09.2014 22:00 13,4 C 97 % 1014,2 hPa 0,0 l/m N 0,00 h 0 W/m 1,2 km/h (1 Bft)
04.09.2014 23:00 13,0 C 98 % 1014,3 hPa 0,0 l/m O 0,00 h 0 W/m 2,8 km/h (1 Bft)
05.09.2014 00:00 12,5 C 98 % 1014,1 hPa 0,0 l/m N 0,00 h 0 W/m 1,1 km/h (0 Bft)
05.09.2014 01:00 11,9 C 98 % 1014,0 hPa 0,0 l/m N 0,00 h 0 W/m 0,0 km/h (0 Bft)
05.09.2014 02:00 11,2 C 98 % 1013,6 hPa 0,0 l/m N 0,00 h 0 W/m 0,3 km/h (0 Bft)
05.09.2014 03:00 10,4 C 98 % 1013,6 hPa 0,0 l/m N 0,00 h 0 W/m 0,0 km/h (0 Bft)
05.09.2014 04:00 10,1 C 99 % 1013,7 hPa 0,0 l/m N 0,00 h 0 W/m 0,1 km/h (0 Bft)
05.09.2014 05:00 10,2 C 99 % 1013,6 hPa 0,0 l/m N 0,00 h 0 W/m 0,0 km/h (0 Bft)
05.09.2014 06:00 10,4 C 99 % 1013,5 hPa 0,0 l/m N 0,00 h 5 W/m 0,0 km/h (0 Bft)
05.09.2014 07:00 11,0 C 99 % 1013,5 hPa 0,0 l/m N 0,00 h 33 W/m 0,4 km/h (0 Bft)
05.09.2014 08:00 12,0 C 99 % 1014,0 hPa 0,0 l/m O 0,00 h 69 W/m 3,6 km/h (1 Bft)
05.09.2014 09:00 13,9 C 100 % 1014,2 hPa 0,0 l/m SO 0,25 h 206 W/m 4,2 km/h (1 Bft)
05.09.2014 10:00 16,5 C 96 % 1014,3 hPa 0,0 l/m S-SW 0,58 h 325 W/m 9,9 km/h (2 Bft)
05.09.2014 11:00 18,6 C 90 % 1014,2 hPa 0,0 l/m S-SW 1,00 h 602 W/m 14,1 km/h (3 Bft)
05.09.2014 12:00 20,5 C 82 % 1013,6 hPa 0,0 l/m SW 0,83 h 510 W/m 13,4 km/h (3 Bft)
05.09.2014 13:00 22,0 C 73 % 1013,0 hPa 0,0 l/m W 1,00 h 727 W/m 12,1 km/h (2 Bft)
05.09.2014 14:00 22,9 C 61 % 1012,6 hPa 0,0 l/m W-NW 1,00 h 735 W/m 13,8 km/h (3 Bft)
05.09.2014 15:00 23,4 C 59 % 1012,3 hPa 0,0 l/m W-SW 0,92 h 558 W/m 10,7 km/h (2 Bft)
05.09.2014 16:00 22,4 C 66 % 1012,0 hPa 0,0 l/m W 0,33 h 333 W/m 12,5 km/h (3 Bft)
05.09.2014 17:00 20,9 C 73 % 1011,9 hPa 0,0 l/m W-SW 0,00 h 116 W/m 5,6 km/h (1 Bft)
05.09.2014 18:00 20,8 C 72 % 1011,9 hPa 0,0 l/m W-NW 0,25 h 102 W/m 2,5 km/h (1 Bft)
05.09.2014 19:00 19,6 C 78 % 1011,8 hPa 0,0 l/m W-NW 0,08 h 24 W/m 2,4 km/h (1 Bft)
05.09.2014 20:00 17,5 C 85 % 1012,2 hPa 0,0 l/m N 0,00 h 0 W/m 0,9 km/h (0 Bft)
05.09.2014 21:00 15,8 C 92 % 1012,4 hPa 0,0 l/m N 0,00 h 0 W/m 0,4 km/h (0 Bft)
05.09.2014 22:00 15,3 C 93 % 1012,3 hPa 0,0 l/m N 0,00 h 0 W/m 0,3 km/h (0 Bft)
05.09.2014 23:00 15,0 C 93 % 1012,4 hPa 0,0 l/m N 0,00 h 0 W/m 0,3 km/h (0 Bft)
06.09.2014 00:00 14,8 C 94 % 1012,2 hPa 0,0 l/m N 0,00 h 0 W/m 0,0 km/h (0 Bft)
06.09.2014 01:00 14,2 C 93 % 1012,1 hPa 0,0 l/m N 0,00 h 0 W/m 0,3 km/h (0 Bft)
06.09.2014 02:00 13,5 C 93 % 1012,0 hPa 0,0 l/m N 0,00 h 0 W/m 0,0 km/h (0 Bft)
06.09.2014 03:00 13,1 C 94 % 1011,7 hPa 0,0 l/m N 0,00 h 0 W/m 0,3 km/h (0 Bft)
06.09.2014 04:00 13,0 C 95 % 1011,5 hPa 0,0 l/m N 0,00 h 0 W/m 0,0 km/h (0 Bft)
06.09.2014 05:00 13,2 C 96 % 1011,5 hPa 0,0 l/m N 0,00 h 0 W/m 0,0 km/h (0 Bft)
06.09.2014 06:00 13,3 C 96 % 1011,5 hPa 0,0 l/m N 0,00 h 5 W/m 0,0 km/h (0 Bft)
06.09.2014 07:00 13,3 C 96 % 1011,5 hPa 0,0 l/m N 0,00 h 23 W/m 0,0 km/h (0 Bft)
06.09.2014 08:00 13,9 C 97 % 1011,8 hPa 0,0 l/m N 0,00 h 67 W/m 0,0 km/h (0 Bft)
06.09.2014 09:00 15,3 C 97 % 1012,0 hPa 0,0 l/m N 0,00 h 117 W/m 0,7 km/h (0 Bft)
06.09.2014 10:00 16,7 C 94 % 1011,9 hPa 0,0 l/m NW 0,25 h 306 W/m 5,1 km/h (1 Bft)
06.09.2014 11:00 19,3 C 86 % 1011,7 hPa 0,0 l/m SW 1,00 h 622 W/m 7,5 km/h (2 Bft)
06.09.2014 12:00 20,9 C 78 % 1011,4 hPa 0,0 l/m SW 1,00 h 707 W/m 8,0 km/h (2 Bft)
06.09.2014 13:00 22,8 C 65 % 1010,9 hPa 0,0 l/m SO 1,00 h 774 W/m 7,9 km/h (2 Bft)
06.09.2014 14:00 23,1 C 63 % 1010,4 hPa 0,0 l/m O-SO 0,50 h 509 W/m 7,0 km/h (2 Bft)
06.09.2014 15:00 23,9 C 58 % 1010,0 hPa 0,0 l/m NO 0,58 h 486 W/m 7,1 km/h (2 Bft)
06.09.2014 16:00 22,7 C 62 % 1009,7 hPa 0,0 l/m NO 0,25 h 215 W/m 3,2 km/h (1 Bft)
06.09.2014 17:00 21,4 C 75 % 1009,7 hPa 0,0 l/m N 0,00 h 100 W/m 0,7 km/h (0 Bft)
06.09.2014 18:00 21,0 C 79 % 1009,8 hPa 0,0 l/m N 0,33 h 127 W/m 1,2 km/h (1 Bft)
06.09.2014 19:00 19,5 C 84 % 1010,1 hPa 0,0 l/m N 0,08 h 23 W/m 0,8 km/h (0 Bft)
06.09.2014 20:00 18,4 C 83 % 1010,7 hPa 0,0 l/m N 0,00 h 0 W/m 0,4 km/h (0 Bft)
06.09.2014 21:00 17,0 C 85 % 1011,2 hPa 0,0 l/m N 0,00 h 0 W/m 0,1 km/h (0 Bft)
06.09.2014 22:00 16,0 C 88 % 1011,4 hPa 0,0 l/m N 0,00 h 0 W/m 0,1 km/h (0 Bft)
06.09.2014 23:00 15,1 C 90 % 1011,4 hPa 0,0 l/m N 0,00 h 0 W/m 0,0 km/h (0 Bft)
07.09.2014 00:00 14,5 C 91 % 1011,3 hPa 0,0 l/m N 0,00 h 0 W/m 0,0 km/h (0 Bft)
07.09.2014 01:00 13,9 C 92 % 1011,6 hPa 0,0 l/m N 0,00 h 0 W/m 0,1 km/h (0 Bft)
07.09.2014 02:00 13,3 C 93 % 1011,5 hPa 0,0 l/m N 0,00 h 0 W/m 0,0 km/h (0 Bft)
07.09.2014 03:00 12,8 C 93 % 1011,3 hPa 0,0 l/m N 0,00 h 0 W/m 0,3 km/h (0 Bft)
07.09.2014 04:00 12,3 C 94 % 1011,3 hPa 0,0 l/m N 0,00 h 0 W/m 0,1 km/h (0 Bft)
07.09.2014 05:00 11,8 C 94 % 1011,3 hPa 0,0 l/m N 0,00 h 0 W/m 0,0 km/h (0 Bft)
07.09.2014 06:00 11,7 C 96 % 1011,6 hPa 0,0 l/m N 0,00 h 6 W/m 0,7 km/h (0 Bft)
07.09.2014 07:00 11,7 C 96 % 1012,1 hPa 0,0 l/m N 0,00 h 34 W/m 0,0 km/h (0 Bft)
07.09.2014 08:00 12,3 C 97 % 1012,4 hPa 0,0 l/m N 0,58 h 158 W/m 0,3 km/h (0 Bft)
07.09.2014 09:00 14,8 C 99 % 1012,4 hPa 0,0 l/m S-SW 1,00 h 327 W/m 4,5 km/h (1 Bft)
07.09.2014 10:00 17,3 C 94 % 1012,6 hPa 0,0 l/m S 0,92 h 451 W/m 6,1 km/h (2 Bft)
07.09.2014 11:00 19,7 C 84 % 1012,4 hPa 0,0 l/m S-SO 1,00 h 589 W/m 6,0 km/h (2 Bft)
07.09.2014 12:00 21,5 C 75 % 1012,1 hPa 0,0 l/m S-SO 1,00 h 714 W/m 7,1 km/h (2 Bft)
07.09.2014 13:00 23,5 C 64 % 1011,7 hPa 0,0 l/m SW 1,00 h 766 W/m 9,7 km/h (2 Bft)
07.09.2014 14:00 24,9 C 58 % 1011,2 hPa 0,0 l/m SW 0,83 h 607 W/m 10,1 km/h (2 Bft)
07.09.2014 15:00 26,7 C 48 % 1010,9 hPa 0,0 l/m SW 1,00 h 639 W/m 9,0 km/h (2 Bft)
07.09.2014 16:00 27,4 C 47 % 1010,7 hPa 0,0 l/m S 0,58 h 336 W/m 7,5 km/h (2 Bft)
07.09.2014 17:00 24,8 C 61 % 1010,7 hPa 0,0 l/m W-SW 0,08 h 120 W/m 4,9 km/h (1 Bft)
07.09.2014 18:00 23,1 C 71 % 1011,0 hPa 0,0 l/m W 0,00 h 66 W/m 2,7 km/h (1 Bft)
07.09.2014 19:00 21,6 C 77 % 1011,1 hPa 0,0 l/m N 0,00 h 17 W/m 1,9 km/h (1 Bft)
07.09.2014 20:00 20,1 C 82 % 1011,8 hPa 0,0 l/m N 0,00 h 0 W/m 1,5 km/h (1 Bft)
07.09.2014 21:00 19,1 C 86 % 1012,2 hPa 0,0 l/m W 0,00 h 0 W/m 4,4 km/h (1 Bft)
07.09.2014 22:00 18,5 C 87 % 1012,5 hPa 0,0 l/m W 0,00 h 0 W/m 5,2 km/h (1 Bft)
07.09.2014 23:00 17,6 C 88 % 1012,5 hPa 0,0 l/m N 0,00 h 0 W/m 2,7 km/h (1 Bft)
Min-Datum _ 01.09.14 07.09.14 06.09.14 - - - - 01.09.14
_ Min-Zeit 06:05 15:55 16:50 - - - - 01:20
Minimum _ 9,9 C 44 % 1009,4 hPa - - - - 0,0 km/h (0 Bft)
Max-Datum _ 07.09.14 05.09.14 01.09.14 01.09.14 - 01.09.14 05.09.14 03.09.14
_ Max-Zeit 16:25 08:25 21:25 02:50 - 08:05 12:10 15:35
Maximum _ 27,7 C 100 % 1020,2 hPa 0,8 l/m - 0,08 h 895 W/m 33,8 km/h
O-NO (5 Bft)
Durchschnitt _ 15,2 C 87 % 1014,8 hPa #0,8 l/m NO #23:10 h 223 W/m 6,4 km/h (2 Bft)